Portada
METAR-TAF:

METAR-TAF

Aeroports :

Goose Bay, Terranova i Labrador, Canadà

latitud: 53-19N, longitud: 060-25W, altitud: 46 m

Observació

L'informe es va fer fa 49 minuts, a les 16:00 UTC
Vent 3 kt del Est
Temperatura -19°C
Humitat 37%
Pressió 1029 hPa
Visibilitat: 24.1 km
Escasses núvols a una alçada de 25000 ft

METAR: CYYR 271600Z 08003KT 15SM FEW250 M19/M30 A3040 RMK CI1 SLP303

Hora: 12:49 (16:49 UTC)

Pronòstic

L'informe es va fer fa 5 hores i 17 minuts, a les 11:32 UTC
Pronòstic vàlid del 27 a les 12 UTC al 28 a les 12 UTC
Vent 10 kt del Oest/Nord-Oest
Visibilitat: 10 km
Cel clar
Evolucionant progressivament
l' 27 a les 14 UTC al 27 a les 16 UTC
Vent 3 kt amb direcció variable
A partir de les 28 a les 0800 UTC
Vent 5 kt del Nord-Est
Visibilitat: 10 km
Cel ennuvolat a una alçada de 22000 ft

TAF: CYYR 271132Z 2712/2812 29010KT P6SM SKC BECMG 2714/2716 VRB03KT FM280800 04005KT P6SM BKN220 RMK NXT FCST BY 271800Z

Observacions i pronòstics meteorològics de més de 4000 aeroports (METAR i TAF).

Les estacions disponibles són els punts grocs i vermells al mapa.

Posi el ratolí al punt desitjat per veure el nom de l'estació.

Feu clic per veure les observacions i els pronòstics meteorològics.

Per canviar el mapa: feu clic els botons verds amb una creu de color negre per apropar; al botó verd amb un guió per allunyar la imatge; o en les fletxes verdes per a mapes adjacents.


METAR-TAF: